createdAt,value
2018-08-06T00:01:48.519Z,25.49
2018-08-06T00:04:16.662Z,25.48
2018-08-06T00:06:44.846Z,25.41
2018-08-06T00:09:13.251Z,25.33
2018-08-06T00:11:41.750Z,25.36
2018-08-06T00:14:09.856Z,25.41
2018-08-06T00:16:38.001Z,25.33
2018-08-06T00:19:06.352Z,25.21
2018-08-06T00:21:34.586Z,25.15
2018-08-06T00:24:02.721Z,25.11
2018-08-06T00:26:30.823Z,25.12
2018-08-06T00:28:58.976Z,25.09
2018-08-06T00:31:27.124Z,25.09
2018-08-06T00:33:55.419Z,25.05
2018-08-06T00:36:23.615Z,25.00
2018-08-06T00:38:51.722Z,25.05
2018-08-06T00:41:19.878Z,24.96
2018-08-06T00:43:48.112Z,24.93
2018-08-06T00:46:16.210Z,24.88
2018-08-06T00:48:44.519Z,24.83
2018-08-06T00:51:12.855Z,24.81
2018-08-06T00:53:41.070Z,24.83
2018-08-06T00:56:09.472Z,24.84
2018-08-06T00:58:37.811Z,24.80
2018-08-06T01:01:06.169Z,24.73
2018-08-06T01:03:34.277Z,24.67
2018-08-06T01:06:02.522Z,24.64
2018-08-06T01:08:30.972Z,24.64
2018-08-06T01:10:59.290Z,24.59
2018-08-06T01:13:27.405Z,24.56
2018-08-06T01:15:55.529Z,24.53
2018-08-06T01:18:23.739Z,24.54
2018-08-06T01:20:52.378Z,24.49
2018-08-06T01:23:20.469Z,24.48
2018-08-06T01:25:48.881Z,24.45
2018-08-06T01:28:17.021Z,24.45
2018-08-06T01:30:45.125Z,24.43
2018-08-06T01:33:13.836Z,24.41
2018-08-06T01:35:42.027Z,24.42
2018-08-06T01:38:10.563Z,24.43
2018-08-06T01:40:38.750Z,24.38
2018-08-06T01:43:06.928Z,24.34
2018-08-06T01:45:35.257Z,24.31
2018-08-06T01:48:03.580Z,24.27
2018-08-06T01:50:31.714Z,24.24
2018-08-06T01:52:59.895Z,24.24
2018-08-06T01:55:28.037Z,24.21
2018-08-06T01:57:56.195Z,24.19
2018-08-06T02:00:24.512Z,24.13
2018-08-06T02:02:52.649Z,24.11
2018-08-06T02:05:20.751Z,24.07
2018-08-06T02:07:48.893Z,24.04
2018-08-06T02:10:17.276Z,24.01
2018-08-06T02:12:45.681Z,23.98
2018-08-06T02:15:14.055Z,23.95
2018-08-06T02:17:42.263Z,23.93
2018-08-06T02:20:15.175Z,23.90
2018-08-06T02:22:44.151Z,23.88
2018-08-06T02:25:12.290Z,23.87
2018-08-06T02:27:40.838Z,23.87
2018-08-06T02:30:11.115Z,23.81
2018-08-06T02:32:39.578Z,23.83
2018-08-06T02:35:08.747Z,23.84
2018-08-06T02:37:36.916Z,23.85
2018-08-06T02:40:06.522Z,23.74
2018-08-06T02:42:34.684Z,23.69
2018-08-06T02:45:03.132Z,23.71
2018-08-06T02:47:31.257Z,23.73
2018-08-06T02:49:59.426Z,23.64
2018-08-06T02:52:27.697Z,23.57
2018-08-06T02:54:55.844Z,23.60
2018-08-06T02:57:23.963Z,23.57
2018-08-06T02:59:52.389Z,23.50
2018-08-06T03:02:20.733Z,23.44
2018-08-06T03:04:48.995Z,23.43
2018-08-06T03:07:17.190Z,23.42
2018-08-06T03:09:46.022Z,23.36
2018-08-06T03:12:14.180Z,23.34
2018-08-06T03:14:42.297Z,23.36
2018-08-06T03:17:10.454Z,23.35
2018-08-06T03:19:38.590Z,23.30
2018-08-06T03:22:07.208Z,23.22
2018-08-06T03:24:35.313Z,23.21
2018-08-06T03:27:03.607Z,23.20
2018-08-06T03:29:32.260Z,23.24
2018-08-06T03:32:00.354Z,23.25
2018-08-06T03:34:28.709Z,23.17
2018-08-06T03:36:57.133Z,23.10
2018-08-06T03:39:25.223Z,23.08
2018-08-06T03:41:53.359Z,23.10
2018-08-06T03:44:21.511Z,23.10
2018-08-06T03:46:49.717Z,23.07
2018-08-06T03:49:17.959Z,22.98
2018-08-06T03:51:46.165Z,22.90
2018-08-06T03:54:14.486Z,22.88
2018-08-06T03:56:42.580Z,22.86
2018-08-06T03:59:11.203Z,22.85
2018-08-06T04:01:39.560Z,22.83
2018-08-06T04:04:07.819Z,22.82
2018-08-06T04:06:36.000Z,22.80
2018-08-06T04:09:05.745Z,22.80
2018-08-06T04:11:34.107Z,22.77
2018-08-06T04:14:02.290Z,22.73
2018-08-06T04:16:34.598Z,22.67
2018-08-06T04:19:02.831Z,22.70
2018-08-06T04:21:31.019Z,22.73
2018-08-06T04:23:59.301Z,22.77
2018-08-06T04:26:27.676Z,22.75
2018-08-06T04:28:55.962Z,22.76
2018-08-06T04:31:24.221Z,22.73
2018-08-06T04:33:52.411Z,22.70
2018-08-06T04:36:20.519Z,22.70
2018-08-06T04:38:48.806Z,22.64
2018-08-06T04:41:16.931Z,22.63
2018-08-06T04:43:45.032Z,22.61
2018-08-06T04:46:13.131Z,22.63
2018-08-06T04:48:41.231Z,22.67
2018-08-06T04:51:09.423Z,22.66
2018-08-06T04:53:37.634Z,22.73
2018-08-06T04:56:05.798Z,22.75
2018-08-06T04:58:34.023Z,22.72
2018-08-06T05:01:02.530Z,22.72
2018-08-06T05:03:30.687Z,22.79
2018-08-06T05:05:58.797Z,22.84
2018-08-06T05:08:26.975Z,22.91
2018-08-06T05:10:55.127Z,22.92
2018-08-06T05:13:23.275Z,22.95
2018-08-06T05:15:51.640Z,23.09
2018-08-06T05:18:20.368Z,23.14
2018-08-06T05:20:48.562Z,23.19
2018-08-06T05:23:16.676Z,23.15
2018-08-06T05:25:44.796Z,23.20
2018-08-06T05:28:12.940Z,23.26
2018-08-06T05:30:41.231Z,23.27
2018-08-06T05:33:09.311Z,23.31
2018-08-06T05:35:38.486Z,23.44
2018-08-06T05:38:06.642Z,23.65
2018-08-06T05:40:34.911Z,23.78
2018-08-06T05:43:04.580Z,23.76
2018-08-06T05:45:32.887Z,23.77
2018-08-06T05:48:01.059Z,23.77
2018-08-06T05:50:29.219Z,23.80
2018-08-06T05:52:57.426Z,23.84
2018-08-06T05:55:25.549Z,23.85
2018-08-06T05:57:54.016Z,23.84
2018-08-06T06:00:22.283Z,23.90
2018-08-06T06:02:50.417Z,23.98
2018-08-06T06:05:18.839Z,23.96
2018-08-06T06:07:47.120Z,24.03
2018-08-06T06:10:15.822Z,24.07
2018-08-06T06:12:44.074Z,24.10
2018-08-06T06:15:14.146Z,24.13
2018-08-06T06:17:43.069Z,24.17
2018-08-06T06:20:11.206Z,24.23
2018-08-06T06:22:39.365Z,24.24
2018-08-06T06:25:09.700Z,24.27
2018-08-06T06:27:38.042Z,24.31
2018-08-06T06:30:07.614Z,24.37
2018-08-06T06:32:36.275Z,24.42
2018-08-06T06:35:04.668Z,24.47
2018-08-06T06:37:32.815Z,24.52
2018-08-06T06:40:04.614Z,24.56
2018-08-06T06:42:32.818Z,24.63
2018-08-06T06:45:01.176Z,24.66
2018-08-06T06:47:29.456Z,24.70
2018-08-06T06:49:57.875Z,24.73
2018-08-06T06:52:26.148Z,24.78
2018-08-06T06:54:54.651Z,24.79
2018-08-06T06:57:22.806Z,24.81
2018-08-06T06:59:51.234Z,24.89
2018-08-06T07:02:19.358Z,24.92
2018-08-06T07:04:47.575Z,24.94
2018-08-06T07:07:15.960Z,25.00
2018-08-06T07:09:44.075Z,25.05
2018-08-06T07:12:12.252Z,25.11
2018-08-06T07:14:40.535Z,25.16
2018-08-06T07:17:08.662Z,25.21
2018-08-06T07:19:36.835Z,25.20
2018-08-06T07:22:06.267Z,25.24
2018-08-06T07:24:34.730Z,25.29
2018-08-06T07:27:03.084Z,25.34
2018-08-06T07:29:31.264Z,25.38
2018-08-06T07:32:00.284Z,25.41
2018-08-06T07:34:28.423Z,25.43
2018-08-06T07:36:57.259Z,25.48
2018-08-06T07:39:25.788Z,25.51
2018-08-06T07:41:53.890Z,25.56
2018-08-06T07:44:22.252Z,25.57
2018-08-06T07:46:50.375Z,25.62
2018-08-06T07:49:18.618Z,25.67
2018-08-06T07:51:46.793Z,25.68
2018-08-06T07:54:14.912Z,25.72
2018-08-06T07:56:43.557Z,25.75
2018-08-06T07:59:11.778Z,25.80
2018-08-06T08:01:40.200Z,25.82
2018-08-06T08:04:08.816Z,25.85
2018-08-06T08:06:37.007Z,25.89
2018-08-06T08:09:08.005Z,25.94
2018-08-06T08:11:36.255Z,25.96
2018-08-06T08:14:04.523Z,25.98
2018-08-06T08:16:32.638Z,26.00
2018-08-06T08:19:00.987Z,26.04
2018-08-06T08:21:29.240Z,26.04
2018-08-06T08:23:57.475Z,26.08
2018-08-06T08:26:25.937Z,26.10
2018-08-06T08:28:54.171Z,26.12
2018-08-06T08:31:22.395Z,26.15
2018-08-06T08:33:50.697Z,26.17
2018-08-06T08:36:18.801Z,26.19
2018-08-06T08:38:46.920Z,26.21
2018-08-06T08:41:15.063Z,26.26
2018-08-06T08:43:43.392Z,26.27
2018-08-06T08:46:11.582Z,26.30
2018-08-06T08:48:39.851Z,26.35
2018-08-06T08:51:07.968Z,26.37
2018-08-06T08:53:36.175Z,26.41
2018-08-06T08:56:04.306Z,26.41
2018-08-06T08:58:32.868Z,26.43
2018-08-06T09:01:00.927Z,26.46
2018-08-06T09:03:30.774Z,26.50
2018-08-06T09:05:59.016Z,26.49
2018-08-06T09:08:27.168Z,26.50
2018-08-06T09:10:55.285Z,26.55
2018-08-06T09:13:23.811Z,26.57
2018-08-06T09:15:51.931Z,26.59
2018-08-06T09:18:20.530Z,26.60
2018-08-06T09:20:48.706Z,26.63
2018-08-06T09:23:16.922Z,26.66
2018-08-06T09:25:45.048Z,26.69
2018-08-06T09:28:13.208Z,26.71
2018-08-06T09:30:41.330Z,26.72
2018-08-06T09:33:09.618Z,26.71
2018-08-06T09:35:38.050Z,26.75
2018-08-06T09:38:06.835Z,26.77
2018-08-06T09:40:34.994Z,26.77
2018-08-06T09:43:03.267Z,26.79
2018-08-06T09:45:31.410Z,26.81
2018-08-06T09:47:59.534Z,26.84
2018-08-06T09:50:27.727Z,26.90
2018-08-06T09:52:55.931Z,26.91
2018-08-06T09:55:26.262Z,26.91
2018-08-06T09:57:54.598Z,26.91
2018-08-06T10:00:28.468Z,26.93
2018-08-06T10:03:00.827Z,26.96
2018-08-06T10:05:30.093Z,27.04
2018-08-06T10:07:58.448Z,27.10
2018-08-06T10:10:26.511Z,27.14
2018-08-06T10:12:54.769Z,27.21
2018-08-06T10:15:23.286Z,27.27
2018-08-06T10:17:53.056Z,27.31
2018-08-06T10:20:23.396Z,27.31
2018-08-06T10:22:51.482Z,27.33
2018-08-06T10:25:19.603Z,27.33
2018-08-06T10:27:48.251Z,27.37
2018-08-06T10:30:19.581Z,27.42
2018-08-06T10:32:47.804Z,27.44
2018-08-06T10:35:17.404Z,27.44
2018-08-06T10:37:47.143Z,27.44
2018-08-06T10:40:17.586Z,27.45
2018-08-06T10:42:46.243Z,27.46
2018-08-06T10:45:16.094Z,27.46
2018-08-06T10:47:44.300Z,27.46
2018-08-06T10:50:12.832Z,27.45
2018-08-06T10:52:41.188Z,27.44
2018-08-06T10:55:10.184Z,27.44
2018-08-06T10:57:39.291Z,27.46
2018-08-06T11:00:11.314Z,27.48
2018-08-06T11:02:39.457Z,27.47
2018-08-06T11:05:08.919Z,27.50
2018-08-06T11:07:37.496Z,27.51
2018-08-06T11:10:08.124Z,27.49
2018-08-06T11:12:36.903Z,27.49
2018-08-06T11:15:07.116Z,27.53
2018-08-06T11:17:35.311Z,27.51
2018-08-06T11:20:03.451Z,27.53
2018-08-06T11:22:31.665Z,27.53
2018-08-06T11:25:00.008Z,27.55
2018-08-06T11:27:28.191Z,27.56
2018-08-06T11:29:56.459Z,27.56
2018-08-06T11:32:24.623Z,27.56
2018-08-06T11:34:52.750Z,27.57
2018-08-06T11:37:20.980Z,27.57
2018-08-06T11:39:49.127Z,27.58
2018-08-06T11:42:17.324Z,27.60
2018-08-06T11:44:45.464Z,27.60
2018-08-06T11:47:13.635Z,27.61
2018-08-06T11:49:41.895Z,27.62
2018-08-06T11:52:09.974Z,27.63
2018-08-06T11:54:38.224Z,27.66
2018-08-06T11:57:06.319Z,27.67
2018-08-06T11:59:34.501Z,27.68
2018-08-06T12:02:03.000Z,27.72
2018-08-06T12:04:31.363Z,27.71
2018-08-06T12:07:00.071Z,27.71
2018-08-06T12:09:28.200Z,27.71
2018-08-06T12:11:56.365Z,27.72
2018-08-06T12:14:24.640Z,27.74
2018-08-06T12:16:52.951Z,27.74
2018-08-06T12:19:21.065Z,27.76
2018-08-06T12:21:49.499Z,27.76
2018-08-06T12:24:17.693Z,27.76
2018-08-06T12:26:45.937Z,27.77
2018-08-06T12:29:14.071Z,27.77
2018-08-06T12:31:42.663Z,27.78
2018-08-06T12:34:10.865Z,27.80
2018-08-06T12:36:39.387Z,27.79
2018-08-06T12:39:11.425Z,27.79
2018-08-06T12:41:39.643Z,27.83
2018-08-06T12:44:09.695Z,27.86
2018-08-06T12:46:38.040Z,27.83
2018-08-06T12:49:06.752Z,27.86
2018-08-06T12:51:35.000Z,27.86
2018-08-06T12:54:04.414Z,27.88
2018-08-06T12:56:32.839Z,27.90
2018-08-06T12:59:00.982Z,27.96
2018-08-06T13:01:29.142Z,28.00
2018-08-06T13:03:57.427Z,28.02
2018-08-06T13:06:25.563Z,28.01
2018-08-06T13:08:53.700Z,28.01
2018-08-06T13:11:21.927Z,28.00
2018-08-06T13:13:50.090Z,28.01
2018-08-06T13:16:18.697Z,28.01
2018-08-06T13:18:46.827Z,28.02
2018-08-06T13:21:15.220Z,28.03
2018-08-06T13:23:43.401Z,28.05
2018-08-06T13:26:11.586Z,28.09
2018-08-06T13:28:39.902Z,28.12
2018-08-06T13:31:08.012Z,28.10
2018-08-06T13:33:36.197Z,28.08
2018-08-06T13:36:04.369Z,28.09
2018-08-06T13:38:32.512Z,28.09
2018-08-06T13:41:00.713Z,28.09
2018-08-06T13:43:28.844Z,28.08
2018-08-06T13:45:56.980Z,28.09
2018-08-06T13:48:25.162Z,28.11
2018-08-06T13:50:53.398Z,28.11
2018-08-06T13:53:21.538Z,28.11
2018-08-06T13:55:49.664Z,28.12
2018-08-06T13:58:17.903Z,28.14
2018-08-06T14:00:46.023Z,28.16
2018-08-06T14:03:14.366Z,28.16
2018-08-06T14:05:42.579Z,28.16
2018-08-06T14:08:10.810Z,28.19
2018-08-06T14:10:39.009Z,28.19
2018-08-06T14:13:07.271Z,28.21
2018-08-06T14:15:35.734Z,28.24
2018-08-06T14:18:04.077Z,28.25
2018-08-06T14:20:32.262Z,28.24
2018-08-06T14:23:00.355Z,28.24
2018-08-06T14:25:28.455Z,28.24
2018-08-06T14:27:56.627Z,28.25
2018-08-06T14:30:24.821Z,28.26
2018-08-06T14:32:53.032Z,28.25
2018-08-06T14:35:21.154Z,28.26
2018-08-06T14:37:49.866Z,28.26
2018-08-06T14:40:19.207Z,28.26
2018-08-06T14:42:47.767Z,28.24
2018-08-06T14:45:16.259Z,28.27
2018-08-06T14:47:44.472Z,28.29
2018-08-06T14:50:14.130Z,28.32
2018-08-06T14:52:42.299Z,28.33
2018-08-06T14:55:10.427Z,28.33
2018-08-06T14:57:39.926Z,28.35
2018-08-06T15:00:12.499Z,28.34
2018-08-06T15:02:40.956Z,28.34
2018-08-06T15:05:09.518Z,28.34
2018-08-06T15:07:38.011Z,28.36
2018-08-06T15:10:07.338Z,28.35
2018-08-06T15:12:35.755Z,28.36
2018-08-06T15:15:04.256Z,28.37
2018-08-06T15:17:32.339Z,28.38
2018-08-06T15:20:00.613Z,28.39
2018-08-06T15:22:28.785Z,28.41
2018-08-06T15:24:56.912Z,28.43
2018-08-06T15:27:25.167Z,28.43
2018-08-06T15:29:53.831Z,28.45
2018-08-06T15:32:22.890Z,28.44
2018-08-06T15:34:52.115Z,28.46
2018-08-06T15:37:20.316Z,28.48
2018-08-06T15:39:48.448Z,28.49
2018-08-06T15:42:16.631Z,28.48
2018-08-06T15:44:44.907Z,28.50
2018-08-06T15:47:14.308Z,28.50
2018-08-06T15:49:42.492Z,28.52
2018-08-06T15:52:11.011Z,28.52
2018-08-06T15:54:39.307Z,28.52
2018-08-06T15:57:07.549Z,28.52
2018-08-06T15:59:35.811Z,28.53
2018-08-06T16:02:04.163Z,28.51
2018-08-06T16:04:32.495Z,28.51
2018-08-06T16:07:00.832Z,28.54
2018-08-06T16:09:29.129Z,28.55
2018-08-06T16:11:57.236Z,28.57
2018-08-06T16:14:25.696Z,28.57
2018-08-06T16:16:54.796Z,28.58
2018-08-06T16:19:23.296Z,28.59
2018-08-06T16:21:51.913Z,28.58
2018-08-06T16:24:20.710Z,28.58
2018-08-06T16:26:49.172Z,28.57
2018-08-06T16:29:17.372Z,28.60
2018-08-06T16:31:45.691Z,28.62
2018-08-06T16:34:15.255Z,28.65
2018-08-06T16:36:43.351Z,28.73
2018-08-06T16:39:13.328Z,28.85
2018-08-06T16:41:41.603Z,28.89
2018-08-06T16:44:10.292Z,28.91
2018-08-06T16:46:38.458Z,28.93
2018-08-06T16:49:07.158Z,28.94
2018-08-06T16:51:35.546Z,28.93
2018-08-06T16:54:04.394Z,28.96
2018-08-06T16:56:32.707Z,28.95
2018-08-06T16:59:01.024Z,28.96
2018-08-06T17:01:29.282Z,28.98
2018-08-06T17:03:57.734Z,28.98
2018-08-06T17:06:26.053Z,28.93
2018-08-06T17:08:54.295Z,28.90
2018-08-06T17:11:22.538Z,28.86
2018-08-06T17:13:50.819Z,28.84
2018-08-06T17:16:19.202Z,28.83
2018-08-06T17:18:47.656Z,28.82
2018-08-06T17:21:15.924Z,28.80
2018-08-06T17:23:44.208Z,28.79
2018-08-06T17:26:12.388Z,28.80
2018-08-06T17:28:40.916Z,28.78
2018-08-06T17:31:09.232Z,28.77
2018-08-06T17:33:37.452Z,28.76
2018-08-06T17:36:06.903Z,28.78
2018-08-06T17:38:35.206Z,28.78
2018-08-06T17:41:03.471Z,28.80
2018-08-06T17:43:31.733Z,28.78
2018-08-06T17:45:59.993Z,28.77
2018-08-06T17:48:28.252Z,28.77
2018-08-06T17:50:56.570Z,28.76
2018-08-06T17:53:24.825Z,28.77
2018-08-06T17:55:53.082Z,28.76
2018-08-06T17:58:21.777Z,28.77
2018-08-06T18:00:49.893Z,28.77
2018-08-06T18:03:18.164Z,28.78
2018-08-06T18:05:46.622Z,28.80
2018-08-06T18:08:15.103Z,28.80
2018-08-06T18:10:43.399Z,28.80
2018-08-06T18:13:11.574Z,28.77
2018-08-06T18:15:40.046Z,28.78
2018-08-06T18:18:08.422Z,28.77
2018-08-06T18:20:36.833Z,28.77
2018-08-06T18:23:05.272Z,28.77
2018-08-06T18:25:34.076Z,28.78
2018-08-06T18:28:02.465Z,28.77
2018-08-06T18:30:30.881Z,28.78
2018-08-06T18:32:59.123Z,28.79
2018-08-06T18:35:27.272Z,28.81
2018-08-06T18:37:55.508Z,28.81
2018-08-06T18:40:23.922Z,28.84
2018-08-06T18:42:52.187Z,28.83
2018-08-06T18:45:21.693Z,28.82
2018-08-06T18:47:51.019Z,28.82
2018-08-06T18:50:19.846Z,28.82
2018-08-06T18:52:49.087Z,28.88
2018-08-06T18:55:17.617Z,28.93
2018-08-06T18:57:46.103Z,28.99
2018-08-06T19:00:22.468Z,29.02
2018-08-06T19:02:50.784Z,29.03
2018-08-06T19:05:18.909Z,29.04
2018-08-06T19:07:47.047Z,29.04
2018-08-06T19:10:15.300Z,29.05
2018-08-06T19:12:48.886Z,29.05
2018-08-06T19:15:17.213Z,29.09
2018-08-06T19:17:50.801Z,29.11
2018-08-06T19:20:19.612Z,29.12
2018-08-06T19:22:47.811Z,29.11
2018-08-06T19:25:21.469Z,29.09
2018-08-06T19:27:49.611Z,29.08
2018-08-06T19:30:17.769Z,29.07
2018-08-06T19:32:46.119Z,29.07
2018-08-06T19:35:14.600Z,29.06
2018-08-06T19:37:47.363Z,29.04
2018-08-06T19:40:15.888Z,29.03
2018-08-06T19:42:49.526Z,29.02
2018-08-06T19:45:17.872Z,29.01
2018-08-06T19:47:46.295Z,29.00
2018-08-06T19:50:20.086Z,29.01
2018-08-06T19:52:48.770Z,28.99
2018-08-06T19:55:22.385Z,28.97
2018-08-06T19:57:51.023Z,28.97
2018-08-06T20:00:21.231Z,28.95
2018-08-06T20:02:49.512Z,28.95
2018-08-06T20:05:17.783Z,28.99
2018-08-06T20:07:46.001Z,29.10
2018-08-06T20:10:15.088Z,29.17
2018-08-06T20:12:43.467Z,29.23
2018-08-06T20:15:13.931Z,29.27
2018-08-06T20:17:42.372Z,29.33
2018-08-06T20:20:11.406Z,29.36
2018-08-06T20:22:39.758Z,29.38
2018-08-06T20:25:14.305Z,29.38
2018-08-06T20:27:42.519Z,29.41
2018-08-06T20:30:11.939Z,29.48
2018-08-06T20:32:40.407Z,29.51
2018-08-06T20:35:11.072Z,29.54
2018-08-06T20:37:39.901Z,29.54
2018-08-06T20:40:09.190Z,29.54
2018-08-06T20:42:38.642Z,29.59
2018-08-06T20:45:10.380Z,29.64
2018-08-06T20:47:42.050Z,29.65
2018-08-06T20:50:15.210Z,29.65
2018-08-06T20:52:43.729Z,29.67
2018-08-06T20:55:12.599Z,29.67
2018-08-06T20:57:41.303Z,29.64
2018-08-06T21:00:12.923Z,29.67
2018-08-06T21:02:41.273Z,29.69
2018-08-06T21:05:09.623Z,29.71
2018-08-06T21:07:38.144Z,29.70
2018-08-06T21:10:07.723Z,29.68
2018-08-06T21:12:36.076Z,29.70
2018-08-06T21:15:04.524Z,29.74
2018-08-06T21:17:32.795Z,29.75
2018-08-06T21:20:00.983Z,29.73
2018-08-06T21:22:29.093Z,29.69
2018-08-06T21:24:57.213Z,29.66
2018-08-06T21:27:25.455Z,29.61
2018-08-06T21:29:53.591Z,29.65
2018-08-06T21:32:21.834Z,29.62
2018-08-06T21:34:50.055Z,29.61
2018-08-06T21:37:18.253Z,29.58
2018-08-06T21:39:46.560Z,29.57
2018-08-06T21:42:14.959Z,29.55
2018-08-06T21:44:43.302Z,29.53
2018-08-06T21:47:11.555Z,29.50
2018-08-06T21:49:39.831Z,29.49
2018-08-06T21:52:08.035Z,29.46
2018-08-06T21:54:36.186Z,29.44
2018-08-06T21:57:04.495Z,29.44
2018-08-06T21:59:33.237Z,29.41
2018-08-06T22:02:01.595Z,29.41
2018-08-06T22:04:30.209Z,29.38
2018-08-06T22:06:58.612Z,29.37
2018-08-06T22:09:26.722Z,29.34
2018-08-06T22:11:55.015Z,29.31
2018-08-06T22:14:23.239Z,29.31
2018-08-06T22:16:52.432Z,29.30
2018-08-06T22:19:20.745Z,29.18
2018-08-06T22:21:48.940Z,29.05
2018-08-06T22:24:17.270Z,29.01
2018-08-06T22:26:45.998Z,28.99
2018-08-06T22:29:14.977Z,28.99
2018-08-06T22:31:43.234Z,28.98
2018-08-06T22:34:11.625Z,28.95
2018-08-06T22:36:40.132Z,28.93
2018-08-06T22:39:10.161Z,28.92
2018-08-06T22:41:38.384Z,28.90
2018-08-06T22:44:06.712Z,28.85
2018-08-06T22:46:35.060Z,28.85
2018-08-06T22:49:03.435Z,28.83
2018-08-06T22:51:31.919Z,28.78
2018-08-06T22:54:00.462Z,28.76
2018-08-06T22:56:28.813Z,28.74
2018-08-06T22:58:56.940Z,28.74
2018-08-06T23:01:25.248Z,28.70
2018-08-06T23:03:53.915Z,28.64
2018-08-06T23:06:22.126Z,28.59
2018-08-06T23:08:50.329Z,28.61
2018-08-06T23:11:18.755Z,28.62
2018-08-06T23:13:46.945Z,28.56
2018-08-06T23:16:15.427Z,28.52
2018-08-06T23:18:43.809Z,28.47
2018-08-06T23:21:12.072Z,28.43
2018-08-06T23:23:40.320Z,28.37
2018-08-06T23:26:08.596Z,28.36
2018-08-06T23:28:36.833Z,28.34
2018-08-06T23:31:05.316Z,28.35
2018-08-06T23:33:33.944Z,28.28
2018-08-06T23:36:02.167Z,28.22
2018-08-06T23:38:30.443Z,28.17
2018-08-06T23:40:58.898Z,28.17
2018-08-06T23:43:27.297Z,28.09
2018-08-06T23:45:55.544Z,28.06
2018-08-06T23:48:23.763Z,28.09
2018-08-06T23:50:51.898Z,28.07
2018-08-06T23:53:20.388Z,28.04
2018-08-06T23:55:48.718Z,28.04
2018-08-06T23:58:17.087Z,28.07
